createdAt,value
2018-07-25T00:01:36.123Z,7.30
2018-07-25T00:04:04.164Z,9.17
2018-07-25T00:06:32.183Z,8.13
2018-07-25T00:09:00.211Z,8.33
2018-07-25T00:11:28.234Z,8.07
2018-07-25T00:13:56.258Z,7.63
2018-07-25T00:16:24.282Z,7.00
2018-07-25T00:18:52.346Z,7.53
2018-07-25T00:21:20.397Z,7.33
2018-07-25T00:23:48.421Z,7.50
2018-07-25T00:26:16.429Z,8.20
2018-07-25T00:28:44.447Z,7.00
2018-07-25T00:31:12.491Z,6.47
2018-07-25T00:33:40.507Z,7.50
2018-07-25T00:36:08.539Z,8.27
2018-07-25T00:38:36.396Z,9.40
2018-07-25T00:41:04.452Z,8.57
2018-07-25T00:43:32.470Z,9.90
2018-07-25T00:46:00.511Z,7.97
2018-07-25T00:48:28.526Z,8.50
2018-07-25T00:50:56.570Z,8.10
2018-07-25T00:53:24.618Z,7.70
2018-07-25T00:55:52.645Z,6.20
2018-07-25T00:58:20.673Z,7.10
2018-07-25T01:00:48.730Z,7.90
2018-07-25T01:03:16.779Z,7.87
2018-07-25T01:05:44.790Z,7.13
2018-07-25T01:08:12.835Z,8.40
2018-07-25T01:10:42.626Z,8.00
2018-07-25T01:13:11.618Z,8.13
2018-07-25T01:15:39.659Z,7.50
2018-07-25T01:18:07.756Z,8.17
2018-07-25T01:20:35.814Z,8.33
2018-07-25T01:23:03.879Z,7.97
2018-07-25T01:25:31.934Z,8.30
2018-07-25T01:27:59.980Z,9.27
2018-07-25T01:30:28.006Z,18.47
2018-07-25T01:32:56.068Z,13.43
2018-07-25T01:35:24.081Z,10.57
2018-07-25T01:37:52.126Z,9.03
2018-07-25T01:40:20.167Z,8.40
2018-07-25T01:42:48.212Z,9.30
2018-07-25T01:45:16.236Z,8.30
2018-07-25T01:47:44.271Z,6.77
2018-07-25T01:50:12.294Z,7.70
2018-07-25T01:52:40.334Z,6.40
2018-07-25T01:55:08.910Z,7.50
2018-07-25T01:57:36.954Z,7.87
2018-07-25T02:00:05.018Z,6.97
2018-07-25T02:02:33.070Z,6.70
2018-07-25T02:05:01.086Z,7.20
2018-07-25T02:07:29.164Z,7.47
2018-07-25T02:09:57.195Z,6.57
2018-07-25T02:12:25.227Z,7.10
2018-07-25T02:14:53.251Z,6.03
2018-07-25T02:17:21.286Z,6.77
2018-07-25T02:19:49.373Z,8.70
2018-07-25T02:22:17.410Z,7.67
2018-07-25T02:24:45.586Z,7.80
2018-07-25T02:27:13.651Z,10.00
2018-07-25T02:29:41.670Z,8.40
2018-07-25T02:32:09.699Z,8.00
2018-07-25T02:34:37.743Z,7.47
2018-07-25T02:37:05.786Z,8.00
2018-07-25T02:39:33.828Z,8.70
2018-07-25T02:42:01.702Z,7.73
2018-07-25T02:44:29.547Z,8.20
2018-07-25T02:46:57.390Z,9.03
2018-07-25T02:49:25.244Z,8.30
2018-07-25T02:51:53.078Z,8.10
2018-07-25T02:54:20.935Z,10.20
2018-07-25T02:56:48.787Z,9.50
2018-07-25T02:59:16.633Z,8.47
2018-07-25T03:01:44.471Z,8.40
2018-07-25T03:04:12.317Z,8.27
2018-07-25T03:06:40.190Z,8.03
2018-07-25T03:09:08.745Z,7.87
2018-07-25T03:11:36.595Z,7.20
2018-07-25T03:14:04.438Z,7.37
2018-07-25T03:16:32.337Z,9.13
2018-07-25T03:19:00.182Z,9.60
2018-07-25T03:21:28.061Z,9.00
2018-07-25T03:23:55.909Z,8.30
2018-07-25T03:26:23.737Z,9.90
2018-07-25T03:28:51.594Z,9.83
2018-07-25T03:31:19.487Z,9.73
2018-07-25T03:33:47.323Z,9.10
2018-07-25T03:36:15.177Z,9.60
2018-07-25T03:38:43.037Z,8.33
2018-07-25T03:41:10.866Z,8.60
2018-07-25T03:43:38.709Z,7.77
2018-07-25T03:46:06.552Z,7.63
2018-07-25T03:48:34.397Z,6.30
2018-07-25T03:51:02.250Z,6.87
2018-07-25T03:53:30.097Z,5.93
2018-07-25T03:55:57.946Z,6.60
2018-07-25T03:58:25.814Z,6.10
2018-07-25T04:00:53.666Z,6.20
2018-07-25T04:03:21.509Z,7.17
2018-07-25T04:05:49.341Z,7.23
2018-07-25T04:08:17.196Z,6.03
2018-07-25T04:10:50.791Z,7.10
2018-07-25T04:13:19.419Z,6.37
2018-07-25T04:15:47.599Z,5.87
2018-07-25T04:18:15.450Z,5.97
2018-07-25T04:20:43.333Z,6.30
2018-07-25T04:23:11.243Z,6.10
2018-07-25T04:25:39.146Z,5.47
2018-07-25T04:28:07.012Z,6.07
2018-07-25T04:30:34.866Z,6.47
2018-07-25T04:33:02.733Z,6.40
2018-07-25T04:35:30.588Z,5.40
2018-07-25T04:37:58.426Z,6.90
2018-07-25T04:40:26.274Z,6.17
2018-07-25T04:42:54.143Z,6.60
2018-07-25T04:45:21.990Z,6.97
2018-07-25T04:47:49.826Z,6.00
2018-07-25T04:50:17.685Z,6.30
2018-07-25T04:52:45.521Z,6.70
2018-07-25T04:55:13.381Z,6.50
2018-07-25T04:57:41.259Z,5.80
2018-07-25T05:00:09.126Z,6.27
2018-07-25T05:02:36.977Z,6.37
2018-07-25T05:05:05.219Z,6.13
2018-07-25T05:07:33.255Z,5.50
2018-07-25T05:10:01.312Z,5.50
2018-07-25T05:12:29.411Z,5.70
2018-07-25T05:14:58.190Z,6.20
2018-07-25T05:17:26.227Z,6.80
2018-07-25T05:19:54.259Z,5.93
2018-07-25T05:22:22.277Z,6.77
2018-07-25T05:24:50.118Z,5.57
2018-07-25T05:27:18.152Z,6.00
2018-07-25T05:29:46.175Z,6.33
2018-07-25T05:32:14.267Z,7.70
2018-07-25T05:34:42.322Z,6.10
2018-07-25T05:37:10.338Z,5.97
2018-07-25T05:39:38.367Z,6.47
2018-07-25T05:42:06.464Z,6.20
2018-07-25T05:44:36.378Z,6.30
2018-07-25T05:47:04.406Z,6.17
2018-07-25T05:49:32.519Z,6.10
2018-07-25T05:52:00.478Z,6.80
2018-07-25T05:54:28.518Z,5.70
2018-07-25T05:56:56.547Z,6.50
2018-07-25T05:59:24.599Z,6.40
2018-07-25T06:01:52.617Z,5.33
2018-07-25T06:04:20.657Z,6.70
2018-07-25T06:06:48.678Z,6.20
2018-07-25T06:09:16.706Z,5.80
2018-07-25T06:11:44.724Z,6.30
2018-07-25T06:14:12.772Z,5.80
2018-07-25T06:16:40.906Z,4.73
2018-07-25T06:19:08.941Z,5.37
2018-07-25T06:21:36.981Z,5.30
2018-07-25T06:24:05.040Z,4.57
2018-07-25T06:26:33.082Z,4.60
2018-07-25T06:29:01.110Z,5.00
2018-07-25T06:31:29.247Z,4.30
2018-07-25T06:33:57.245Z,4.57
2018-07-25T06:36:25.275Z,4.10
2018-07-25T06:38:53.305Z,3.83
2018-07-25T06:41:21.338Z,3.83
2018-07-25T06:43:49.359Z,3.33
2018-07-25T06:46:17.448Z,3.33
2018-07-25T06:48:45.468Z,3.47
2018-07-25T06:51:13.514Z,3.20
2018-07-25T06:53:41.548Z,3.27
2018-07-25T06:56:09.579Z,3.10
2018-07-25T06:58:37.607Z,2.80
2018-07-25T07:01:05.660Z,3.30
2018-07-25T07:03:33.703Z,3.40
2018-07-25T07:06:01.756Z,3.00
2018-07-25T07:08:29.806Z,3.33
2018-07-25T07:10:57.835Z,3.20
2018-07-25T07:13:25.866Z,3.30
2018-07-25T07:15:53.884Z,3.13
2018-07-25T07:18:21.945Z,3.10
2018-07-25T07:20:49.974Z,3.80
2018-07-25T07:23:17.992Z,3.10
2018-07-25T07:25:46.054Z,3.40
2018-07-25T07:28:14.066Z,2.80
2018-07-25T07:30:42.168Z,2.80
2018-07-25T07:33:10.159Z,3.20
2018-07-25T07:35:38.345Z,2.80
2018-07-25T07:38:07.095Z,2.70
2018-07-25T07:40:35.128Z,2.67
2018-07-25T07:43:03.160Z,3.10
2018-07-25T07:45:31.194Z,3.00
2018-07-25T07:47:59.274Z,3.70
2018-07-25T07:50:27.307Z,2.87
2018-07-25T07:52:55.350Z,2.90
2018-07-25T07:55:23.382Z,3.40
2018-07-25T07:57:51.393Z,3.50
2018-07-25T08:00:19.415Z,3.27
2018-07-25T08:02:47.466Z,3.13
2018-07-25T08:05:15.482Z,3.20
2018-07-25T08:07:43.498Z,3.23
2018-07-25T08:10:11.523Z,3.00
2018-07-25T08:12:46.016Z,3.20
2018-07-25T08:15:14.015Z,3.00
2018-07-25T08:17:42.048Z,3.17
2018-07-25T08:20:10.060Z,2.63
2018-07-25T08:22:38.118Z,2.40
2018-07-25T08:25:06.146Z,3.40
2018-07-25T08:27:34.193Z,2.73
2018-07-25T08:30:02.238Z,2.50
2018-07-25T08:32:30.266Z,2.33
2018-07-25T08:34:58.292Z,2.73
2018-07-25T08:37:26.351Z,2.90
2018-07-25T08:39:54.374Z,2.73
2018-07-25T08:42:22.382Z,2.20
2018-07-25T08:44:50.438Z,2.93
2018-07-25T08:47:18.466Z,2.27
2018-07-25T08:49:46.506Z,2.23
2018-07-25T08:52:14.650Z,2.50
2018-07-25T08:54:42.691Z,2.20
2018-07-25T08:57:10.709Z,1.83
2018-07-25T08:59:38.738Z,2.77
2018-07-25T09:02:06.746Z,1.87
2018-07-25T09:04:34.759Z,2.03
2018-07-25T09:07:02.778Z,1.87
2018-07-25T09:09:30.818Z,2.00
2018-07-25T09:11:58.830Z,2.27
2018-07-25T09:14:26.872Z,1.93
2018-07-25T09:16:54.953Z,2.70
2018-07-25T09:19:22.934Z,2.40
2018-07-25T09:21:50.954Z,2.20
2018-07-25T09:24:18.966Z,2.63
2018-07-25T09:26:46.991Z,2.40
2018-07-25T09:29:15.010Z,2.43
2018-07-25T09:31:43.045Z,2.20
2018-07-25T09:34:11.186Z,2.50
2018-07-25T09:36:39.169Z,1.70
2018-07-25T09:39:09.063Z,1.90
2018-07-25T09:41:37.098Z,1.73
2018-07-25T09:44:05.114Z,2.23
2018-07-25T09:46:33.242Z,1.97
2018-07-25T09:49:01.166Z,1.70
2018-07-25T09:51:29.216Z,2.27
2018-07-25T09:53:57.234Z,2.23
2018-07-25T09:56:25.262Z,2.17
2018-07-25T09:58:53.335Z,2.10
2018-07-25T10:01:21.315Z,1.90
2018-07-25T10:03:49.351Z,2.33
2018-07-25T10:06:17.435Z,2.40
2018-07-25T10:08:45.478Z,2.40
2018-07-25T10:11:13.493Z,2.70
2018-07-25T10:13:41.531Z,2.33
2018-07-25T10:16:09.562Z,1.60
2018-07-25T10:18:37.575Z,1.77
2018-07-25T10:21:05.910Z,2.00
2018-07-25T10:23:33.968Z,1.80
2018-07-25T10:26:02.128Z,1.67
2018-07-25T10:28:30.324Z,1.90
2018-07-25T10:30:58.394Z,1.60
2018-07-25T10:33:26.441Z,2.00
2018-07-25T10:35:54.682Z,1.93
2018-07-25T10:38:22.683Z,1.93
2018-07-25T10:40:50.710Z,2.50
2018-07-25T10:43:18.750Z,1.73
2018-07-25T10:45:46.795Z,1.80
2018-07-25T10:48:14.826Z,1.63
2018-07-25T10:50:42.846Z,1.40
2018-07-25T10:53:10.883Z,1.90
2018-07-25T10:55:39.759Z,2.00
2018-07-25T10:58:07.904Z,2.20
2018-07-25T11:00:35.933Z,1.83
2018-07-25T11:03:04.014Z,1.60
2018-07-25T11:05:32.048Z,1.97
2018-07-25T11:08:00.138Z,2.00
2018-07-25T11:10:28.166Z,2.10
2018-07-25T11:12:56.202Z,1.80
2018-07-25T11:15:24.284Z,1.67
2018-07-25T11:17:52.355Z,1.53
2018-07-25T11:20:20.385Z,1.80
2018-07-25T11:22:48.411Z,1.80
2018-07-25T11:25:16.456Z,2.37
2018-07-25T11:27:44.482Z,1.80
2018-07-25T11:30:12.510Z,1.90
2018-07-25T11:32:40.611Z,1.70
2018-07-25T11:35:08.551Z,1.90
2018-07-25T11:37:36.579Z,1.70
2018-07-25T11:40:05.186Z,1.80
2018-07-25T11:42:33.207Z,1.73
2018-07-25T11:45:01.229Z,1.70
2018-07-25T11:47:29.277Z,1.70
2018-07-25T11:49:57.396Z,1.60
2018-07-25T11:52:25.340Z,1.80
2018-07-25T11:54:53.356Z,1.83
2018-07-25T11:57:21.422Z,1.70
2018-07-25T11:59:49.607Z,2.07
2018-07-25T12:02:17.763Z,1.93
2018-07-25T12:04:45.887Z,1.93
2018-07-25T12:07:13.979Z,2.00
2018-07-25T12:09:41.833Z,1.90
2018-07-25T12:12:10.398Z,1.63
2018-07-25T12:14:38.503Z,1.67
2018-07-25T12:17:06.677Z,1.70
2018-07-25T12:19:34.734Z,1.70
2018-07-25T12:22:02.769Z,1.20
2018-07-25T12:24:30.990Z,1.43
2018-07-25T12:26:59.201Z,1.60
2018-07-25T12:29:27.166Z,2.10
2018-07-25T12:31:55.394Z,1.50
2018-07-25T12:36:51.712Z,2.03
2018-07-25T12:39:19.725Z,1.60
2018-07-25T12:41:47.867Z,1.90
2018-07-25T12:44:15.876Z,2.07
2018-07-25T12:46:43.890Z,1.30
2018-07-25T12:49:12.073Z,1.90
2018-07-25T12:51:40.279Z,1.70
2018-07-25T12:54:08.160Z,2.20
2018-07-25T12:56:36.195Z,1.60
2018-07-25T12:59:04.365Z,1.60
2018-07-25T13:01:32.474Z,1.80
2018-07-25T13:04:00.852Z,1.83
2018-07-25T13:06:28.920Z,2.07
2018-07-25T13:08:56.963Z,1.80
2018-07-25T13:11:24.979Z,1.80
2018-07-25T13:13:53.005Z,1.80
2018-07-25T13:16:21.015Z,1.57
2018-07-25T13:18:49.115Z,2.03
2018-07-25T13:21:17.155Z,2.20
2018-07-25T13:23:45.215Z,1.90
2018-07-25T13:26:13.267Z,1.60
2018-07-25T13:28:41.211Z,1.80
2018-07-25T13:31:09.234Z,2.07
2018-07-25T13:33:37.295Z,2.27
2018-07-25T13:36:05.499Z,1.80
2018-07-25T13:38:33.564Z,1.80
2018-07-25T13:41:01.881Z,1.70
2018-07-25T13:43:30.009Z,2.20
2018-07-25T13:45:58.133Z,2.00
2018-07-25T13:48:26.165Z,1.63
2018-07-25T13:50:54.405Z,1.80
2018-07-25T13:53:22.516Z,1.90
2018-07-25T13:55:51.620Z,1.97
2018-07-25T13:58:19.795Z,1.70
2018-07-25T14:00:47.708Z,2.10
2018-07-25T14:03:15.894Z,1.60
2018-07-25T14:05:44.027Z,1.93
2018-07-25T14:08:11.941Z,2.20
2018-07-25T14:10:40.207Z,1.90
2018-07-25T14:13:08.276Z,1.80
2018-07-25T14:15:36.214Z,1.87
2018-07-25T14:18:04.398Z,1.80
2018-07-25T14:20:32.209Z,2.37
2018-07-25T14:23:01.441Z,2.23
2018-07-25T14:25:29.725Z,1.73
2018-07-25T14:27:57.558Z,1.90
2018-07-25T14:30:25.578Z,2.40
2018-07-25T14:32:53.990Z,2.07
2018-07-25T14:35:22.147Z,2.03
2018-07-25T14:37:50.511Z,1.83
2018-07-25T14:40:18.673Z,1.90
2018-07-25T14:42:46.970Z,2.30
2018-07-25T14:45:15.096Z,2.70
2018-07-25T14:47:43.015Z,2.17
2018-07-25T14:50:11.054Z,2.00
2018-07-25T14:52:39.070Z,1.87
2018-07-25T14:55:06.934Z,2.10
2018-07-25T14:57:34.986Z,2.67
2018-07-25T15:00:03.021Z,2.13
2018-07-25T15:02:31.063Z,1.87
2018-07-25T15:04:59.075Z,2.10
2018-07-25T15:07:27.148Z,2.27
2018-07-25T15:09:55.015Z,1.80
2018-07-25T15:12:28.585Z,2.20
2018-07-25T15:14:56.669Z,1.93
2018-07-25T15:17:24.710Z,2.40
2018-07-25T15:19:52.645Z,1.97
2018-07-25T15:22:20.753Z,2.10
2018-07-25T15:24:48.800Z,2.13
2018-07-25T15:27:16.938Z,1.97
2018-07-25T15:29:44.994Z,2.10
2018-07-25T15:32:13.039Z,2.20
2018-07-25T15:34:41.081Z,1.87
2018-07-25T15:37:09.142Z,2.13
2018-07-25T15:39:37.328Z,1.70
2018-07-25T15:42:05.563Z,2.03
2018-07-25T15:44:34.598Z,1.80
2018-07-25T15:47:02.765Z,1.90
2018-07-25T15:49:31.898Z,2.20
2018-07-25T15:52:00.180Z,2.17
2018-07-25T15:54:28.227Z,1.80
2018-07-25T15:56:56.274Z,2.00
2018-07-25T15:59:24.549Z,2.10
2018-07-25T16:01:53.821Z,1.67
2018-07-25T16:04:21.714Z,2.27
2018-07-25T16:06:49.566Z,1.90
2018-07-25T16:09:17.707Z,1.97
2018-07-25T16:11:46.654Z,2.30
2018-07-25T16:14:14.832Z,2.10
2018-07-25T16:16:42.927Z,2.20
2018-07-25T16:19:10.966Z,1.70
2018-07-25T16:21:39.403Z,1.73
2018-07-25T16:24:08.504Z,1.97
2018-07-25T16:26:36.627Z,1.77
2018-07-25T16:29:05.274Z,2.60
2018-07-25T16:31:34.546Z,2.77
2018-07-25T16:34:02.727Z,1.70
2018-07-25T16:36:30.760Z,2.40
2018-07-25T16:38:58.919Z,2.47
2018-07-25T16:41:27.067Z,2.77
2018-07-25T16:43:55.360Z,1.90
2018-07-25T16:46:23.594Z,2.17
2018-07-25T16:48:51.692Z,1.87
2018-07-25T16:51:19.738Z,1.70
2018-07-25T16:53:47.689Z,2.00
2018-07-25T16:56:15.722Z,1.80
2018-07-25T16:58:43.561Z,2.00
2018-07-25T17:01:11.600Z,2.33
2018-07-25T17:03:39.451Z,2.70
2018-07-25T17:06:07.536Z,2.23
2018-07-25T17:08:35.604Z,2.50
2018-07-25T17:11:04.031Z,1.93
2018-07-25T17:13:32.062Z,2.33
2018-07-25T17:16:00.135Z,2.27
2018-07-25T17:18:28.184Z,2.60
2018-07-25T17:20:56.230Z,1.90
2018-07-25T17:23:24.383Z,2.10
2018-07-25T17:25:53.331Z,2.20
2018-07-25T17:28:21.390Z,2.20
2018-07-25T17:30:49.913Z,1.90
2018-07-25T17:33:18.237Z,2.33
2018-07-25T17:35:46.286Z,1.93
2018-07-25T17:38:14.378Z,2.30
2018-07-25T17:40:42.966Z,1.93
2018-07-25T17:43:11.082Z,1.90
2018-07-25T17:45:39.187Z,2.10
2018-07-25T17:48:07.257Z,2.30
2018-07-25T17:50:35.274Z,1.93
2018-07-25T17:53:03.307Z,2.00
2018-07-25T17:55:31.641Z,1.80
2018-07-25T17:57:59.721Z,2.37
2018-07-25T18:00:27.856Z,2.17
2018-07-25T18:02:56.047Z,1.60
2018-07-25T18:05:24.236Z,1.83
2018-07-25T18:07:52.286Z,1.70
2018-07-25T18:10:21.574Z,2.10
2018-07-25T18:12:49.458Z,1.97
2018-07-25T18:15:17.320Z,1.70
2018-07-25T18:17:45.154Z,1.77
2018-07-25T18:20:13.214Z,1.73
2018-07-25T18:22:41.418Z,1.93
2018-07-25T18:25:09.363Z,1.87
2018-07-25T18:27:37.313Z,2.23
2018-07-25T18:30:05.271Z,2.03
2018-07-25T18:32:33.141Z,2.20
2018-07-25T18:35:00.986Z,2.43
2018-07-25T18:37:29.094Z,1.97
2018-07-25T18:39:57.215Z,2.20
2018-07-25T18:42:25.137Z,2.13
2018-07-25T18:44:53.056Z,2.47
2018-07-25T18:47:20.934Z,1.87
2018-07-25T18:49:48.774Z,1.80
2018-07-25T18:52:16.639Z,2.47
2018-07-25T18:54:44.611Z,2.70
2018-07-25T18:57:12.699Z,2.17
2018-07-25T18:59:40.577Z,1.90
2018-07-25T19:02:08.659Z,2.10
2018-07-25T19:04:36.510Z,1.73
2018-07-25T19:07:04.499Z,1.87
2018-07-25T19:09:32.289Z,2.43
2018-07-25T19:12:00.197Z,1.90
2018-07-25T19:14:33.714Z,1.97
2018-07-25T19:17:01.788Z,1.87
2018-07-25T19:19:29.826Z,1.93
2018-07-25T19:21:57.761Z,1.97
2018-07-25T19:24:25.878Z,1.80
2018-07-25T19:26:54.116Z,2.00
2018-07-25T19:29:21.968Z,2.10
2018-07-25T19:31:49.918Z,1.97
2018-07-25T19:34:17.764Z,2.30
2018-07-25T19:36:45.889Z,1.70
2018-07-25T19:39:13.846Z,2.40
2018-07-25T19:41:42.082Z,2.17
2018-07-25T19:44:10.165Z,1.90
2018-07-25T19:46:38.208Z,1.93
2018-07-25T19:49:06.049Z,1.80
2018-07-25T19:51:34.115Z,1.90
2018-07-25T19:54:02.457Z,2.30
2018-07-25T19:56:30.301Z,1.90
2018-07-25T19:58:58.199Z,2.10
2018-07-25T20:01:26.105Z,2.40
2018-07-25T20:03:53.953Z,2.17
2018-07-25T20:06:22.002Z,2.10
2018-07-25T20:08:50.169Z,2.37
2018-07-25T20:11:18.146Z,1.80
2018-07-25T20:13:51.580Z,2.20
2018-07-25T20:16:19.498Z,2.30
2018-07-25T20:18:47.534Z,2.23
2018-07-25T20:21:15.362Z,2.30
2018-07-25T20:23:43.511Z,2.20
2018-07-25T20:26:11.606Z,1.80
2018-07-25T20:28:39.632Z,2.40
2018-07-25T20:31:07.663Z,2.23
2018-07-25T20:33:35.745Z,2.40
2018-07-25T20:36:03.612Z,2.30
2018-07-25T20:38:31.561Z,2.23
2018-07-25T20:40:59.401Z,2.40
2018-07-25T20:43:27.247Z,2.60
2018-07-25T20:45:55.176Z,2.47
2018-07-25T20:48:23.039Z,2.30
2018-07-25T20:50:50.870Z,2.53
2018-07-25T20:53:18.722Z,2.80
2018-07-25T20:55:46.549Z,2.33
2018-07-25T20:58:14.384Z,2.10
2018-07-25T21:00:43.196Z,2.67
2018-07-25T21:03:11.014Z,2.50
2018-07-25T21:05:38.960Z,2.33
2018-07-25T21:08:08.148Z,2.17
2018-07-25T21:10:36.265Z,2.63
2018-07-25T21:13:04.620Z,2.57
2018-07-25T21:15:32.614Z,2.80
2018-07-25T21:18:00.450Z,2.70
2018-07-25T21:20:28.362Z,2.67
2018-07-25T21:22:56.194Z,2.40
2018-07-25T21:25:24.042Z,2.80
2018-07-25T21:27:51.995Z,2.60
2018-07-25T21:30:19.834Z,2.73
2018-07-25T21:32:47.695Z,2.80
2018-07-25T21:35:16.791Z,2.77
2018-07-25T21:37:44.863Z,2.13
2018-07-25T21:40:13.011Z,2.60
2018-07-25T21:42:41.064Z,2.23
2018-07-25T21:45:09.146Z,2.93
2018-07-25T21:47:37.175Z,3.40
2018-07-25T21:50:05.223Z,2.93
2018-07-25T21:52:33.332Z,2.80
2018-07-25T21:55:01.488Z,2.97
2018-07-25T21:57:29.564Z,2.63
2018-07-25T21:59:57.638Z,3.30
2018-07-25T22:02:25.658Z,2.93
2018-07-25T22:04:53.493Z,3.17
2018-07-25T22:07:21.507Z,3.40
2018-07-25T22:09:49.542Z,2.27
2018-07-25T22:12:17.663Z,2.90
2018-07-25T22:14:45.490Z,3.13
2018-07-25T22:17:13.527Z,3.20
2018-07-25T22:19:41.618Z,2.37
2018-07-25T22:22:09.502Z,3.60
2018-07-25T22:24:37.524Z,2.37
2018-07-25T22:27:05.349Z,2.60
2018-07-25T22:29:33.184Z,3.17
2018-07-25T22:32:01.034Z,3.87
2018-07-25T22:34:29.090Z,3.30
2018-07-25T22:36:57.157Z,3.80
2018-07-25T22:39:25.205Z,3.20
2018-07-25T22:41:53.219Z,3.53
2018-07-25T22:44:21.262Z,3.57
2018-07-25T22:46:49.322Z,3.13
2018-07-25T22:49:17.351Z,3.10
2018-07-25T22:51:45.399Z,3.20
2018-07-25T22:54:13.422Z,3.30
2018-07-25T22:56:41.450Z,4.00
2018-07-25T22:59:09.299Z,3.40
2018-07-25T23:01:37.876Z,3.73
2018-07-25T23:04:06.037Z,4.23
2018-07-25T23:06:34.095Z,4.20
2018-07-25T23:09:01.950Z,4.13
2018-07-25T23:11:29.995Z,3.90
2018-07-25T23:13:58.027Z,3.60
2018-07-25T23:16:26.055Z,3.70
2018-07-25T23:18:54.086Z,4.40
2018-07-25T23:21:21.942Z,4.30
2018-07-25T23:23:49.958Z,3.43
2018-07-25T23:26:18.000Z,4.33
2018-07-25T23:28:46.043Z,3.90
2018-07-25T23:31:14.072Z,3.43
2018-07-25T23:33:42.114Z,4.00
2018-07-25T23:36:10.145Z,3.80
2018-07-25T23:38:38.166Z,3.47
2018-07-25T23:41:06.246Z,3.50
2018-07-25T23:43:34.104Z,3.03
2018-07-25T23:46:02.171Z,4.20
2018-07-25T23:48:30.228Z,3.60
2018-07-25T23:50:58.310Z,4.13
2018-07-25T23:53:26.330Z,3.87
2018-07-25T23:55:54.373Z,4.20
2018-07-25T23:58:22.571Z,4.23
